LECO

A Coruña Airport

Culleredo, Spain
TAF LECO 170800Z 1709/1809 15009KT CAVOK TX20/1715Z TN09/1806Z PROB30 TEMPO 1710/1715 15015G25KT
Issued Valid From Valid To
Nov-17 @ 08:00 UTC
(an hour ago)
Nov-17 @ 09:00 UTC
(19 minutes ago)
Nov-18 @ 09:00 UTC
(in 24 hours)
Nov-17 @ 09:00 to Nov-18 @ 09:00
TAF LECO 170800Z 1709/1809 15009KT CAVOK TX20/1715Z TN09/1806Z
Wind Visibility Clouds
150° at 9 knots 10,000+ meters
  • No significant clouds
Temporary  (Probability 30%) Nov-17 @ 10:00 to Nov-17 @ 15:00
PROB30 TEMPO 1710/1715 15015G25KT
Wind
150° at 15 knots
 Gusting to 25 knots
TAF LECO 170800Z 1709/1809 15009KT CAVOK TX20/1715Z TN09/1806Z PROB30 TEMPO 1710/1715 15015G25KT
Issued Nov-17 @ 08:00 UTC
(an hour ago)
Valid From Nov-17 @ 09:00 UTC
(19 minutes ago)
Valid To Nov-18 @ 09:00 UTC
(in 24 hours)
Nov-17 @ 09:00 - Nov-18 @ 09:00
Wind Visibility
150° at 9 knots 10,000+ meters
Clouds
  • No significant clouds
Probability 30% Temporary Nov-17 @ 10:00 - Nov-17 @ 15:00
Wind
150° at 15 knots
 Gusting to 25 knots